Aviation Digital Data Service (ADDS)

Output produced by METARs form (0000 UTC 04 May 2016)
found at http://www.aviationweather.gov/adds/metars/
 
KUNV 032353Z 03004KT 10SM OVC060 14/10 A2977
KUNV 032253Z 03005KT 10SM OVC060 15/10 A2976
KUNV 032153Z 03005KT 10SM OVC060 15/10 A2976
KUNV 032053Z 02005KT 10SM BKN060 OVC070 16/10 A2976
KUNV 031953Z 02006KT 10SM SCT045 BKN060 16/11 A2978
KUNV 031853Z VRB03KT 10SM SCT035 BKN050 BKN060 14/10 A2980
KUNV 031836Z VRB03KT 10SM BKN028 BKN048 OVC055 14/10 A2981
KUNV 031812Z 03003KT 10SM BKN016 BKN024 BKN050 14/10 A2981
KUNV 031753Z 00000KT 10SM BKN012 BKN030 BKN050 13/10 A2981
KUNV 031710Z 00000KT 10SM OVC010 12/10 A2982
KUNV 031653Z 00000KT 10SM OVC008 12/10 A2983
KUNV 031553Z 00000KT 7SM OVC008 11/09 A2985
KUNV 031453Z 00000KT 7SM OVC006 10/09 A2985
KUNV 031353Z 06005KT 7SM OVC006 09/08 A2984
KUNV 031253Z 05007KT 5SM BR OVC006 08/08 A2986
KUNV 031153Z 06007KT 5SM BR OVC006 08/08 A2987
KUNV 031053Z 05006KT 5SM BR OVC006 08/08 A2987
KUNV 030953Z 05006KT 7SM OVC006 09/08 A2985
KUNV 030935Z AUTO 04007KT 10SM -RA OVC006 09/08 A2985 RMK AO2 T00870082
KUNV 030915Z AUTO 04006KT 10SM OVC006 09/08 A2985 RMK AO2 T00870083
KUNV 030855Z AUTO 04005KT 10SM OVC004 09/09 A2986 RMK AO2 T00900086
KUNV 030835Z AUTO 05005KT 10SM OVC004 09/09 A2985 RMK AO2 T00900087
KUNV 030815Z AUTO 01005KT 10SM OVC002 09/09 A2985 RMK AO2 T00920089
KUNV 030755Z AUTO 04007KT 10SM OVC002 09/09 A2985 RMK AO2 T00900087
KUNV 030735Z AUTO 03007KT 10SM OVC002 09/09 A2986 RMK AO2 T00910088
KUNV 030715Z AUTO 02008KT 7SM OVC002 09/09 A2986 RMK AO2 T00940091
KUNV 030655Z AUTO 03009KT 10SM BKN004 OVC008 10/09 A2986 RMK AO2 LTG DSNT E T00960093
KUNV 030635Z AUTO 03008KT 10SM -RA OVC004 10/10 A2987 RMK AO2 T00990095
KUNV 030615Z AUTO 04006KT 10SM OVC004 10/10 A2987 RMK AO2 T01010098
KUNV 030555Z AUTO 03006KT 7SM OVC004 10/10 A2988 RMK AO2 60001 T01030100 10178 20103
KUNV 030535Z AUTO 04005KT 7SM -DZ OVC004 10/10 A2988 RMK AO2 P0003 T01040100
KUNV 030515Z AUTO 04005KT 7SM DZ BKN004 OVC011 11/10 A2989 RMK AO2 P0002 T01050100
KUNV 030455Z AUTO 03006KT 4SM RA SCT004 BKN009 OVC014 11/10 A2991 RMK AO2 P0001 T01060102
KUNV 030435Z AUTO 02007KT 7SM RA SCT002 BKN021 OVC045 11/11 A2991 RMK AO2 P0002 T01100105
KUNV 030415Z AUTO 02006KT 10SM RA BKN019 OVC046 12/11 A2990 RMK AO2 T01150111
KUNV 030355Z AUTO 02008KT 10SM SCT017 OVC046 12/11 A2990 RMK AO2 T01170112 402270096
KUNV 030335Z AUTO 04007KT 10SM RA SCT038 OVC046 12/11 A2990 RMK AO2 P0004 T01200112
KUNV 030315Z AUTO 02007KT 10SM -RA SCT038 OVC044 13/12 A2991 RMK AO2 P0003 T01260115
KUNV 030255Z AUTO 02008KT 10SM -RA BKN044 BKN060 OVC075 13/12 A2990 RMK AO2 LTG DSNT SW T01310116
KUNV 030235Z AUTO 02006KT 10SM -RA OVC044 15/12 A2990 RMK AO2 LTG DSNT E T01460116
KUNV 030215Z AUTO 00000KT 10SM OVC044 15/12 A2989 RMK AO2 T01480117
KUNV 030155Z AUTO 00000KT 10SM OVC044 16/12 A2989 RMK AO2 T01570115
KUNV 030053Z 00000KT 10SM OVC050 17/09 A2990
KUNV 022353Z 28006KT 10SM SCT055 18/09 A2989
KUNV 022253Z 30005KT 10SM SCT055 SCT075 SCT085 19/09 A2988
KUNV 022153Z 27010KT 10SM SCT065 BKN080 20/10 A2988
KUNV 022053Z 31008G17KT 10SM SCT055 BKN075 21/10 A2987
KUNV 021953Z 31008G17KT 10SM SCT060 22/10 A2988
KUNV 021853Z 30010G20KT 10SM SCT055 22/10 A2987
KUNV 021753Z 30010G21KT 10SM BKN050 21/10 A2987
KUNV 021653Z 30010KT 10SM BKN035 BKN045 21/13 A2987
KUNV 021637Z 29008G15KT 10SM BKN035 BKN045 21/14 A2987
KUNV 021553Z 23008KT 10SM BKN020 BKN030 18/14 A2988
KUNV 021514Z 23008KT 10SM BKN015 BKN037 17/14 A2988
KUNV 021453Z 26007KT 7SM OVC012 16/14 A2988
KUNV 021353Z 21010G14KT 5SM BR OVC006 13/12 A2990
KUNV 021253Z 20005KT 7SM BR OVC006 12/11 A2989 RMK LTG DST NE